DCBSC EDMO-EDSB
Flight info
| Callsign | DCBSC |
|---|---|
| Flight time | 0h 42m |
| Altitude | 24000 |
| Route | MAH L173 RIXED/N0397F220 L173 LBU Z729 KRH KRH1L |
| Aircraft | PC24/M-SBDGIRWY/LB2 |
Departure
| Time | 2026-04-23 15:16 |
|---|---|
| Airport | Oberpfaffenhofen Airport (EDMO) |
Arrival
| Time | 2026-04-23 15:59 |
|---|---|
| Airport | Karlsruhe Baden-Baden Airport (EDSB) |
| Time | Latitude | Longitude | Altitude | Speed | Heading |
|---|---|---|---|---|---|
| 2026-04-23 15:07 | 48.08633 | 11.28556 | 1937 ft | 0 kts | 133° |
| 2026-04-23 15:12 | 48.08631 | 11.28556 | 1910 ft | 1 kts | 167° |
| 2026-04-23 15:12 | 48.08629 | 11.28545 | 1911 ft | 2 kts | 298° |
| 2026-04-23 15:12 | 48.08623 | 11.28492 | 1911 ft | 9 kts | 229° |
| 2026-04-23 15:12 | 48.08564 | 11.28395 | 1905 ft | 18 kts | 225° |
| 2026-04-23 15:13 | 48.08477 | 11.28270 | 1917 ft | 23 kts | 219° |
| 2026-04-23 15:13 | 48.08326 | 11.28068 | 1922 ft | 33 kts | 221° |
| 2026-04-23 15:13 | 48.08167 | 11.27858 | 1928 ft | 28 kts | 220° |
| 2026-04-23 15:13 | 48.08048 | 11.27778 | 1932 ft | 16 kts | 179° |
| 2026-04-23 15:14 | 48.07949 | 11.27773 | 1934 ft | 13 kts | 186° |
| 2026-04-23 15:14 | 48.07876 | 11.27742 | 1936 ft | 9 kts | 201° |
| 2026-04-23 15:14 | 48.07831 | 11.27703 | 1937 ft | 6 kts | 218° |
| 2026-04-23 15:14 | 48.07764 | 11.27616 | 1940 ft | 19 kts | 222° |
| 2026-04-23 15:15 | 48.07651 | 11.27463 | 1943 ft | 21 kts | 222° |
| 2026-04-23 15:15 | 48.07551 | 11.27327 | 1947 ft | 18 kts | 221° |
| 2026-04-23 15:15 | 48.07463 | 11.27308 | 1948 ft | 11 kts | 134° |
| 2026-04-23 15:15 | 48.07471 | 11.27403 | 1947 ft | 14 kts | 40° |
| 2026-04-23 15:16 | 48.07726 | 11.27748 | 1940 ft | 93 kts | 42° |
| 2026-04-23 15:16 | 48.08417 | 11.28641 | 2066 ft | 164 kts | 37° |
| 2026-04-23 15:16 | 48.09360 | 11.29891 | 2459 ft | 183 kts | 41° |
| 2026-04-23 15:16 | 48.10378 | 11.31303 | 2554 ft | 208 kts | 36° |
| 2026-04-23 15:17 | 48.11666 | 11.32221 | 3089 ft | 204 kts | 11° |
| 2026-04-23 15:17 | 48.13099 | 11.32592 | 3300 ft | 221 kts | 7° |
| 2026-04-23 15:17 | 48.14641 | 11.32740 | 3612 ft | 231 kts | 0° |
| 2026-04-23 15:17 | 48.16321 | 11.32665 | 3084 ft | 242 kts | 352° |
| 2026-04-23 15:18 | 48.17864 | 11.32334 | 3387 ft | 210 kts | 351° |
| 2026-04-23 15:18 | 48.19271 | 11.32106 | 3902 ft | 206 kts | 353° |
| 2026-04-23 15:18 | 48.20681 | 11.31943 | 4487 ft | 199 kts | 353° |
| 2026-04-23 15:18 | 48.22089 | 11.31755 | 5138 ft | 206 kts | 353° |
| 2026-04-23 15:19 | 48.23499 | 11.31571 | 5743 ft | 203 kts | 355° |
| 2026-04-23 15:19 | 48.24929 | 11.31372 | 6392 ft | 207 kts | 352° |
| 2026-04-23 15:19 | 48.26307 | 11.30701 | 7011 ft | 211 kts | 334° |
| 2026-04-23 15:19 | 48.27499 | 11.29426 | 7618 ft | 213 kts | 317° |
| 2026-04-23 15:20 | 48.28522 | 11.27819 | 8244 ft | 213 kts | 316° |
| 2026-04-23 15:20 | 48.29571 | 11.26217 | 8886 ft | 216 kts | 317° |
| 2026-04-23 15:20 | 48.30625 | 11.24588 | 9529 ft | 218 kts | 317° |
| 2026-04-23 15:20 | 48.31684 | 11.22947 | 10198 ft | 220 kts | 317° |
| 2026-04-23 15:21 | 48.32750 | 11.21297 | 10801 ft | 222 kts | 318° |
| 2026-04-23 15:21 | 48.33812 | 11.19652 | 11403 ft | 222 kts | 318° |
| 2026-04-23 15:21 | 48.34892 | 11.17979 | 12028 ft | 225 kts | 318° |
| 2026-04-23 15:21 | 48.36001 | 11.16260 | 12677 ft | 226 kts | 319° |
| 2026-04-23 15:22 | 48.37085 | 11.14575 | 13310 ft | 229 kts | 319° |
| 2026-04-23 15:22 | 48.38195 | 11.12853 | 13969 ft | 230 kts | 319° |
| 2026-04-23 15:22 | 48.39314 | 11.11113 | 14575 ft | 234 kts | 319° |
| 2026-04-23 15:22 | 48.40452 | 11.09346 | 15177 ft | 236 kts | 319° |
| 2026-04-23 15:23 | 48.41609 | 11.07547 | 15792 ft | 242 kts | 319° |
| 2026-04-23 15:23 | 48.42788 | 11.05710 | 16417 ft | 246 kts | 319° |
| 2026-04-23 15:23 | 48.43986 | 11.03842 | 17056 ft | 249 kts | 319° |
| 2026-04-23 15:23 | 48.45200 | 11.01949 | 17705 ft | 254 kts | 319° |
| 2026-04-23 15:24 | 48.46436 | 11.00019 | 18372 ft | 258 kts | 319° |
| 2026-04-23 15:24 | 48.47692 | 10.98059 | 18984 ft | 261 kts | 319° |
| 2026-04-23 15:24 | 48.48964 | 10.96069 | 19572 ft | 265 kts | 319° |
| 2026-04-23 15:24 | 48.50246 | 10.94055 | 20177 ft | 268 kts | 319° |
| 2026-04-23 15:25 | 48.51547 | 10.91972 | 20800 ft | 278 kts | 319° |
| 2026-04-23 15:25 | 48.52892 | 10.89816 | 21439 ft | 287 kts | 319° |
| 2026-04-23 15:25 | 48.54281 | 10.87597 | 22094 ft | 295 kts | 319° |
| 2026-04-23 15:25 | 48.55708 | 10.85315 | 22762 ft | 302 kts | 320° |
| 2026-04-23 15:26 | 48.57162 | 10.82987 | 23445 ft | 308 kts | 320° |
| 2026-04-23 15:26 | 48.58657 | 10.80594 | 24011 ft | 323 kts | 319° |
| 2026-04-23 15:26 | 48.60262 | 10.78042 | 24086 ft | 345 kts | 319° |
| 2026-04-23 15:26 | 48.61966 | 10.75352 | 24229 ft | 362 kts | 318° |
| 2026-04-23 15:27 | 48.63749 | 10.72530 | 24305 ft | 380 kts | 318° |
| 2026-04-23 15:27 | 48.65585 | 10.69610 | 24313 ft | 396 kts | 317° |
| 2026-04-23 15:27 | 48.67497 | 10.66560 | 24315 ft | 401 kts | 317° |
| 2026-04-23 15:27 | 48.69432 | 10.63477 | 24317 ft | 403 kts | 317° |
| 2026-04-23 15:28 | 48.71371 | 10.60391 | 24317 ft | 404 kts | 317° |
| 2026-04-23 15:28 | 48.73306 | 10.57305 | 24318 ft | 405 kts | 317° |
| 2026-04-23 15:28 | 48.75241 | 10.54213 | 24321 ft | 404 kts | 317° |
| 2026-04-23 15:28 | 48.77178 | 10.51114 | 24321 ft | 404 kts | 317° |
| 2026-04-23 15:29 | 48.79114 | 10.48013 | 24321 ft | 405 kts | 317° |
| 2026-04-23 15:29 | 48.80881 | 10.44666 | 24316 ft | 410 kts | 307° |
| 2026-04-23 15:29 | 48.82269 | 10.40865 | 24313 ft | 414 kts | 298° |
| 2026-04-23 15:29 | 48.83227 | 10.36727 | 24317 ft | 419 kts | 288° |
| 2026-04-23 15:30 | 48.83733 | 10.32349 | 24319 ft | 422 kts | 280° |
| 2026-04-23 15:30 | 48.84081 | 10.27918 | 24328 ft | 423 kts | 280° |
| 2026-04-23 15:30 | 48.84440 | 10.23513 | 24326 ft | 420 kts | 280° |
| 2026-04-23 15:30 | 48.84799 | 10.19100 | 24319 ft | 420 kts | 280° |
| 2026-04-23 15:31 | 48.85150 | 10.14693 | 24312 ft | 420 kts | 280° |
| 2026-04-23 15:31 | 48.85498 | 10.10290 | 24313 ft | 419 kts | 279° |
| 2026-04-23 15:31 | 48.85847 | 10.05899 | 24309 ft | 419 kts | 279° |
| 2026-04-23 15:31 | 48.86197 | 10.01497 | 24304 ft | 420 kts | 279° |
| 2026-04-23 15:32 | 48.86542 | 9.97092 | 24304 ft | 420 kts | 279° |
| 2026-04-23 15:32 | 48.86881 | 9.92744 | 24301 ft | 420 kts | 279° |
| 2026-04-23 15:32 | 48.87224 | 9.88358 | 24298 ft | 419 kts | 279° |
| 2026-04-23 15:32 | 48.87565 | 9.83958 | 24295 ft | 419 kts | 279° |
| 2026-04-23 15:33 | 48.87902 | 9.79566 | 24293 ft | 419 kts | 279° |
| 2026-04-23 15:33 | 48.88238 | 9.75176 | 24299 ft | 419 kts | 279° |
| 2026-04-23 15:33 | 48.88573 | 9.70783 | 24299 ft | 419 kts | 279° |
| 2026-04-23 15:33 | 48.88906 | 9.66386 | 24298 ft | 419 kts | 279° |
| 2026-04-23 15:34 | 48.89236 | 9.61987 | 24295 ft | 419 kts | 279° |
| 2026-04-23 15:34 | 48.89565 | 9.57587 | 24300 ft | 418 kts | 279° |
| 2026-04-23 15:34 | 48.89893 | 9.53199 | 24297 ft | 418 kts | 279° |
| 2026-04-23 15:34 | 48.90218 | 9.48805 | 24294 ft | 418 kts | 278° |
| 2026-04-23 15:35 | 48.90543 | 9.44402 | 24293 ft | 419 kts | 278° |
| 2026-04-23 15:35 | 48.90865 | 9.40008 | 24301 ft | 418 kts | 278° |
| 2026-04-23 15:35 | 48.91186 | 9.35612 | 24298 ft | 419 kts | 278° |
| 2026-04-23 15:35 | 48.91593 | 9.31242 | 24298 ft | 418 kts | 282° |
| 2026-04-23 15:36 | 48.92080 | 9.26879 | 24136 ft | 420 kts | 282° |
| 2026-04-23 15:36 | 48.92546 | 9.22580 | 23697 ft | 403 kts | 281° |
| 2026-04-23 15:36 | 48.92973 | 9.18502 | 23157 ft | 379 kts | 281° |
| 2026-04-23 15:36 | 48.93382 | 9.14644 | 22616 ft | 360 kts | 282° |
| 2026-04-23 15:37 | 48.93781 | 9.10965 | 22092 ft | 348 kts | 282° |
| 2026-04-23 15:37 | 48.94170 | 9.07353 | 21589 ft | 345 kts | 282° |
| 2026-04-23 15:37 | 48.94423 | 9.04969 | 21263 ft | 345 kts | 282° |
| 2026-04-23 15:37 | 48.94932 | 9.00141 | 20626 ft | 345 kts | 282° |
| 2026-04-23 15:38 | 48.95311 | 8.96545 | 20152 ft | 344 kts | 282° |
| 2026-04-23 15:38 | 48.95688 | 8.92958 | 19696 ft | 342 kts | 282° |
| 2026-04-23 15:38 | 48.96062 | 8.89395 | 19239 ft | 340 kts | 282° |
| 2026-04-23 15:38 | 48.96437 | 8.85860 | 18786 ft | 337 kts | 282° |
| 2026-04-23 15:39 | 48.96807 | 8.82360 | 18297 ft | 333 kts | 282° |
| 2026-04-23 15:39 | 48.97171 | 8.78892 | 17577 ft | 332 kts | 282° |
| 2026-04-23 15:39 | 48.97534 | 8.75414 | 16927 ft | 332 kts | 282° |
| 2026-04-23 15:39 | 48.97892 | 8.71977 | 16291 ft | 326 kts | 282° |
| 2026-04-23 15:40 | 48.98244 | 8.68604 | 15675 ft | 320 kts | 282° |
| 2026-04-23 15:40 | 48.98588 | 8.65280 | 15063 ft | 315 kts | 281° |
| 2026-04-23 15:40 | 48.98871 | 8.62028 | 14468 ft | 312 kts | 275° |
| 2026-04-23 15:40 | 48.98709 | 8.58747 | 13842 ft | 311 kts | 262° |
| 2026-04-23 15:41 | 48.98081 | 8.55611 | 13172 ft | 310 kts | 249° |
| 2026-04-23 15:41 | 48.97044 | 8.52745 | 12529 ft | 308 kts | 240° |
| 2026-04-23 15:41 | 48.95929 | 8.49971 | 11901 ft | 306 kts | 240° |
| 2026-04-23 15:41 | 48.94834 | 8.47204 | 11281 ft | 304 kts | 240° |
| 2026-04-23 15:42 | 48.93743 | 8.44468 | 10677 ft | 302 kts | 240° |
| 2026-04-23 15:42 | 48.92658 | 8.41754 | 10075 ft | 299 kts | 240° |
| 2026-04-23 15:42 | 48.91585 | 8.39074 | 9420 ft | 295 kts | 240° |
| 2026-04-23 15:42 | 48.90524 | 8.36419 | 8771 ft | 293 kts | 240° |
| 2026-04-23 15:43 | 48.89473 | 8.33792 | 8140 ft | 289 kts | 239° |
| 2026-04-23 15:43 | 48.88431 | 8.31195 | 7523 ft | 287 kts | 239° |
| 2026-04-23 15:43 | 48.87397 | 8.28622 | 6914 ft | 284 kts | 239° |
| 2026-04-23 15:43 | 48.86378 | 8.26079 | 6424 ft | 278 kts | 239° |
| 2026-04-23 15:44 | 48.85376 | 8.23593 | 6296 ft | 271 kts | 239° |
| 2026-04-23 15:44 | 48.84427 | 8.21238 | 6287 ft | 251 kts | 240° |
| 2026-04-23 15:44 | 48.83540 | 8.19022 | 6284 ft | 241 kts | 239° |
| 2026-04-23 15:44 | 48.82672 | 8.16877 | 6283 ft | 238 kts | 239° |
| 2026-04-23 15:45 | 48.81806 | 8.14731 | 6290 ft | 240 kts | 239° |
| 2026-04-23 15:45 | 48.80936 | 8.12574 | 6287 ft | 240 kts | 239° |
| 2026-04-23 15:45 | 48.80035 | 8.10454 | 6282 ft | 238 kts | 231° |
| 2026-04-23 15:45 | 48.78782 | 8.08775 | 6033 ft | 245 kts | 212° |
| 2026-04-23 15:46 | 48.77335 | 8.07450 | 5682 ft | 241 kts | 211° |
| 2026-04-23 15:46 | 48.75921 | 8.06133 | 5332 ft | 237 kts | 211° |
| 2026-04-23 15:46 | 48.74534 | 8.04827 | 4977 ft | 233 kts | 211° |
| 2026-04-23 15:46 | 48.73161 | 8.03550 | 4618 ft | 230 kts | 211° |
| 2026-04-23 15:47 | 48.71799 | 8.02279 | 4243 ft | 228 kts | 211° |
| 2026-04-23 15:47 | 48.70456 | 8.01031 | 4001 ft | 222 kts | 211° |
| 2026-04-23 15:47 | 48.69175 | 7.99836 | 3994 ft | 213 kts | 211° |
| 2026-04-23 15:47 | 48.67910 | 7.98660 | 4005 ft | 215 kts | 211° |
| 2026-04-23 15:48 | 48.66639 | 7.97475 | 3999 ft | 218 kts | 211° |
| 2026-04-23 15:48 | 48.65375 | 7.96298 | 4006 ft | 205 kts | 211° |
| 2026-04-23 15:48 | 48.64174 | 7.95181 | 3990 ft | 201 kts | 211° |
| 2026-04-23 15:48 | 48.62988 | 7.94083 | 3982 ft | 200 kts | 211° |
| 2026-04-23 15:49 | 48.61804 | 7.92981 | 3987 ft | 200 kts | 211° |
| 2026-04-23 15:49 | 48.60626 | 7.91891 | 3985 ft | 199 kts | 211° |
| 2026-04-23 15:49 | 48.59445 | 7.90794 | 3984 ft | 200 kts | 211° |
| 2026-04-23 15:49 | 48.58257 | 7.89693 | 3997 ft | 201 kts | 211° |
| 2026-04-23 15:50 | 48.57052 | 7.88574 | 3992 ft | 204 kts | 210° |
| 2026-04-23 15:50 | 48.55842 | 7.87455 | 4004 ft | 204 kts | 211° |
| 2026-04-23 15:50 | 48.54552 | 7.86696 | 3970 ft | 197 kts | 179° |
| 2026-04-23 15:50 | 48.53268 | 7.87205 | 3988 ft | 192 kts | 144° |
| 2026-04-23 15:51 | 48.52420 | 7.88688 | 3969 ft | 188 kts | 111° |
| 2026-04-23 15:51 | 48.52271 | 7.90575 | 3959 ft | 175 kts | 78° |
| 2026-04-23 15:51 | 48.52763 | 7.92148 | 3973 ft | 164 kts | 49° |
| 2026-04-23 15:51 | 48.53677 | 7.93104 | 3972 ft | 160 kts | 22° |
| 2026-04-23 15:52 | 48.54783 | 7.93271 | 3956 ft | 162 kts | 353° |
| 2026-04-23 15:52 | 48.55872 | 7.92851 | 3998 ft | 164 kts | 348° |
| 2026-04-23 15:52 | 48.57003 | 7.92466 | 4001 ft | 167 kts | 350° |
| 2026-04-23 15:52 | 48.58112 | 7.92076 | 3986 ft | 161 kts | 349° |
| 2026-04-23 15:53 | 48.59192 | 7.91668 | 3988 ft | 161 kts | 351° |
| 2026-04-23 15:53 | 48.60278 | 7.91810 | 4005 ft | 157 kts | 19° |
| 2026-04-23 15:53 | 48.61264 | 7.92512 | 4008 ft | 161 kts | 31° |
| 2026-04-23 15:53 | 48.62191 | 7.93326 | 3863 ft | 144 kts | 31° |
| 2026-04-23 15:54 | 48.63045 | 7.94113 | 3632 ft | 142 kts | 32° |
| 2026-04-23 15:54 | 48.63873 | 7.94887 | 3442 ft | 138 kts | 32° |
| 2026-04-23 15:54 | 48.64672 | 7.95640 | 3263 ft | 135 kts | 32° |
| 2026-04-23 15:54 | 48.65478 | 7.96392 | 3108 ft | 139 kts | 33° |
| 2026-04-23 15:55 | 48.66294 | 7.97155 | 2902 ft | 137 kts | 32° |
| 2026-04-23 15:55 | 48.67086 | 7.97893 | 2733 ft | 130 kts | 31° |
| 2026-04-23 15:55 | 48.67862 | 7.98615 | 2541 ft | 131 kts | 32° |
| 2026-04-23 15:55 | 48.68615 | 7.99323 | 2365 ft | 122 kts | 31° |
| 2026-04-23 15:56 | 48.69081 | 7.99760 | 2258 ft | 114 kts | 31° |
| 2026-04-23 15:56 | 48.69745 | 8.00375 | 2104 ft | 110 kts | 32° |
| 2026-04-23 15:56 | 48.70423 | 8.01006 | 2008 ft | 117 kts | 32° |
| 2026-04-23 15:56 | 48.71099 | 8.01642 | 1797 ft | 114 kts | 30° |
| 2026-04-23 15:57 | 48.71751 | 8.02259 | 1643 ft | 108 kts | 33° |
| 2026-04-23 15:57 | 48.72395 | 8.02892 | 1478 ft | 113 kts | 32° |
| 2026-04-23 15:57 | 48.73040 | 8.03540 | 1385 ft | 111 kts | 32° |
| 2026-04-23 15:57 | 48.73719 | 8.04144 | 1276 ft | 110 kts | 28° |
| 2026-04-23 15:58 | 48.74385 | 8.04772 | 1091 ft | 116 kts | 32° |
| 2026-04-23 15:58 | 48.75070 | 8.05403 | 990 ft | 114 kts | 29° |
| 2026-04-23 15:58 | 48.75756 | 8.06040 | 790 ft | 116 kts | 30° |
| 2026-04-23 15:58 | 48.76436 | 8.06663 | 601 ft | 112 kts | 30° |
| 2026-04-23 15:59 | 48.77100 | 8.07271 | 429 ft | 110 kts | 31° |
| 2026-04-23 15:59 | 48.77652 | 8.07785 | 409 ft | 55 kts | 32° |
| 2026-04-23 15:59 | 48.77868 | 8.08017 | 409 ft | 21 kts | 70° |
| 2026-04-23 15:59 | 48.77843 | 8.08132 | 410 ft | 0 kts | 122° |
| 2026-04-23 16:00 | 48.77823 | 8.08169 | 410 ft | 12 kts | 141° |
| 2026-04-23 16:01 | 48.77698 | 8.08120 | 410 ft | 23 kts | 211° |
| 2026-04-23 16:01 | 48.77552 | 8.07979 | 410 ft | 19 kts | 214° |
| 2026-04-23 16:01 | 48.77449 | 8.07958 | 410 ft | 19 kts | 135° |
| 2026-04-23 16:01 | 48.77341 | 8.08004 | 410 ft | 24 kts | 213° |
| 2026-04-23 16:02 | 48.77181 | 8.07867 | 410 ft | 29 kts | 188° |
| 2026-04-23 16:02 | 48.77016 | 8.07840 | 409 ft | 22 kts | 221° |